Clontarf — VZBX — position and weather

sailwx.info

Track history (hours):
 
Tides and Currents Weather Stations Pressure Air Temp Water Temp Dewpoint Dewpoint Depression Visibility Wind Speed Wind Dir Waves Ship Positions

Clontarf

Last reported at 2018-Feb-14 21:10 UTC. Time now 2018-Feb-25 09:55 UTC.
Position S 27°26' E 153°08'.
Warning: this ship's position is 10 days out of date.

Length 30 m; draft 5.6 m.

Type: Tug. MMSI: 503379000.

Date/timePositionNaut miles runAvg speedWind from/ knotsBaromVisibWave heightAir tempDewpointWater temp
2018-Feb-14 21:10S 27°26' E 153°08'1 4.5
2018-Feb-14 20:53S 27°25' E 153°09'1 1.8
2018-Feb-14 20:24S 27°24' E 153°09'0 0.0
2018-Feb-14 19:50S 27°24' E 153°09'0 0.0
2018-Feb-14 19:11S 27°24' E 153°09'0 0.0
2018-Feb-14 18:59S 27°24' E 153°09'0 0.0
2018-Feb-14 18:30S 27°24' E 153°09'0 0.0
2018-Feb-14 18:00S 27°24' E 153°09'0 0.0
2018-Feb-14 17:30S 27°24' E 153°09'0 0.0
2018-Feb-14 17:00S 27°24' E 153°09'0 0.0
2018-Feb-14 16:30S 27°24' E 153°09'0 0.0
2018-Feb-14 15:40S 27°24' E 153°09'0 0.0
2018-Feb-14 15:28S 27°24' E 153°09'0 0.0
2018-Feb-14 14:57S 27°24' E 153°09'0 0.0
2018-Feb-14 14:24S 27°24' E 153°09'0 0.0
2018-Feb-13 18:58S 27°24' E 153°09'0 0.0
2018-Feb-13 10:59S 27°24' E 153°09'2 0.1
2018-Feb-12 18:18S 27°22' E 153°10'0 0.1
2018-Feb-12 16:13S 27°22' E 153°10'0 0.0
2018-Feb-12 15:56S 27°22' E 153°10'2 0.1
2018-Feb-11 21:30S 27°24' E 153°09'0 0.0
2018-Feb-11 20:57S 27°24' E 153°09'0 0.0
2018-Feb-11 20:15S 27°24' E 153°09'0 0.0
2018-Feb-11 19:57S 27°24' E 153°09'1 0.3
2018-Feb-11 16:58S 27°23' E 153°09'0 0.4
2018-Feb-11 16:10S 27°23' E 153°09'0 0.1
2018-Feb-11 15:54S 27°23' E 153°09'0 0.0
2018-Feb-11 14:06S 27°23' E 153°09'0 0.0
2018-Feb-11 13:58S 27°23' E 153°09'0 0.6
2018-Feb-11 13:24S 27°23' E 153°10'1 1.7
2018-Feb-11 12:54S 27°22' E 153°10'1 2.4
2018-Feb-11 12:30S 27°22' E 153°11'0 0.1
2018-Feb-11 11:50S 27°22' E 153°11'1 3.3
2018-Feb-11 11:30S 27°21' E 153°11'1 1.1
2018-Feb-11 10:20S 27°22' E 153°11'2 6.2
2018-Feb-11 10:00S 27°20' E 153°12'3 5.4
2018-Feb-11 09:30S 27°22' E 153°10'  
2018-Feb-07 04:29S 27°22' E 153°10'0 0.0
2018-Feb-06 15:08S 27°23' E 153°10'1 5.0
2018-Feb-06 14:56S 27°22' E 153°10'0 0.0
2018-Feb-06 13:24S 27°22' E 153°10'3 0.1
2018-Feb-05 17:36S 27°24' E 153°09'  
Track history (hours):
 
Tides and Currents Weather Stations Pressure Air Temp Water Temp Dewpoint Dewpoint Depression Visibility Wind Speed Wind Dir Waves Ship Positions

Clontarf

Last reported at 2018-Feb-14 21:10 UTC. Time now 2018-Feb-25 09:55 UTC.
Position S 27°26' E 153°08'.
Warning: this ship's position is 10 days out of date.

Length 30 m; draft 5.6 m.

Type: Tug. MMSI: 503379000.

Date/timePositionNaut miles runAvg speedWind from/ knotsBaromVisibWave heightAir tempDewpointWater temp
2018-Feb-14 21:10S 27°26' E 153°08'1 4.5
2018-Feb-14 20:53S 27°25' E 153°09'1 1.8
2018-Feb-14 20:24S 27°24' E 153°09'0 0.0
2018-Feb-14 19:50S 27°24' E 153°09'0 0.0
2018-Feb-14 19:11S 27°24' E 153°09'0 0.0
2018-Feb-14 18:59S 27°24' E 153°09'0 0.0
2018-Feb-14 18:30S 27°24' E 153°09'0 0.0
2018-Feb-14 18:00S 27°24' E 153°09'0 0.0
2018-Feb-14 17:30S 27°24' E 153°09'0 0.0
2018-Feb-14 17:00S 27°24' E 153°09'0 0.0
2018-Feb-14 16:30S 27°24' E 153°09'0 0.0
2018-Feb-14 15:40S 27°24' E 153°09'0 0.0
2018-Feb-14 15:28S 27°24' E 153°09'0 0.0
2018-Feb-14 14:57S 27°24' E 153°09'0 0.0
2018-Feb-14 14:24S 27°24' E 153°09'0 0.0
2018-Feb-13 18:58S 27°24' E 153°09'0 0.0
2018-Feb-13 10:59S 27°24' E 153°09'2 0.1
2018-Feb-12 18:18S 27°22' E 153°10'0 0.1
2018-Feb-12 16:13S 27°22' E 153°10'0 0.0
2018-Feb-12 15:56S 27°22' E 153°10'2 0.1
2018-Feb-11 21:30S 27°24' E 153°09'0 0.0
2018-Feb-11 20:57S 27°24' E 153°09'0 0.0
2018-Feb-11 20:15S 27°24' E 153°09'0 0.0
2018-Feb-11 19:57S 27°24' E 153°09'1 0.3
2018-Feb-11 16:58S 27°23' E 153°09'0 0.4
2018-Feb-11 16:10S 27°23' E 153°09'0 0.1
2018-Feb-11 15:54S 27°23' E 153°09'0 0.0
2018-Feb-11 14:06S 27°23' E 153°09'0 0.0
2018-Feb-11 13:58S 27°23' E 153°09'0 0.6
2018-Feb-11 13:24S 27°23' E 153°10'1 1.7
2018-Feb-11 12:54S 27°22' E 153°10'1 2.4
2018-Feb-11 12:30S 27°22' E 153°11'0 0.1
2018-Feb-11 11:50S 27°22' E 153°11'1 3.3
2018-Feb-11 11:30S 27°21' E 153°11'1 1.1
2018-Feb-11 10:20S 27°22' E 153°11'2 6.2
2018-Feb-11 10:00S 27°20' E 153°12'3 5.4
2018-Feb-11 09:30S 27°22' E 153°10'  
2018-Feb-07 04:29S 27°22' E 153°10'0 0.0
2018-Feb-06 15:08S 27°23' E 153°10'1 5.0
2018-Feb-06 14:56S 27°22' E 153°10'0 0.0
2018-Feb-06 13:24S 27°22' E 153°10'3 0.1
2018-Feb-05 17:36S 27°24' E 153°09'  

Dump ship's entire track history